sensor_id;sensor_type;location;lat;lon;timestamp;P1;durP1;ratioP1;P2;durP2;ratioP2
16346;SDS011;8283;48.504;13.734;2023-05-01T00:01:56;2.95;;;2.28;;
16346;SDS011;8283;48.504;13.734;2023-05-01T00:04:40;2.33;;;2.05;;
16346;SDS011;8283;48.504;13.734;2023-05-01T00:07:25;3.55;;;1.92;;
16346;SDS011;8283;48.504;13.734;2023-05-01T00:10:13;3.72;;;2.35;;
16346;SDS011;8283;48.504;13.734;2023-05-01T00:12:58;5.65;;;2.17;;
16346;SDS011;8283;48.504;13.734;2023-05-01T00:15:42;2.17;;;1.98;;
16346;SDS011;8283;48.504;13.734;2023-05-01T00:18:28;2.75;;;2.33;;
16346;SDS011;8283;48.504;13.734;2023-05-01T00:21:13;3.10;;;2.20;;
16346;SDS011;8283;48.504;13.734;2023-05-01T00:23:57;2.72;;;2.30;;
16346;SDS011;8283;48.504;13.734;2023-05-01T00:26:42;4.20;;;2.67;;
16346;SDS011;8283;48.504;13.734;2023-05-01T00:29:26;2.92;;;2.63;;
16346;SDS011;8283;48.504;13.734;2023-05-01T00:32:11;2.95;;;2.28;;
16346;SDS011;8283;48.504;13.734;2023-05-01T00:34:55;2.55;;;2.35;;
16346;SDS011;8283;48.504;13.734;2023-05-01T00:37:40;3.78;;;2.65;;
16346;SDS011;8283;48.504;13.734;2023-05-01T00:40:25;3.50;;;2.53;;
16346;SDS011;8283;48.504;13.734;2023-05-01T00:43:10;3.97;;;2.83;;
16346;SDS011;8283;48.504;13.734;2023-05-01T00:45:56;3.10;;;2.22;;
16346;SDS011;8283;48.504;13.734;2023-05-01T00:48:40;3.05;;;2.40;;
16346;SDS011;8283;48.504;13.734;2023-05-01T00:51:25;2.67;;;2.35;;
16346;SDS011;8283;48.504;13.734;2023-05-01T00:54:11;2.53;;;2.20;;
16346;SDS011;8283;48.504;13.734;2023-05-01T00:56:56;3.05;;;2.45;;
16346;SDS011;8283;48.504;13.734;2023-05-01T00:59:40;3.20;;;2.58;;
16346;SDS011;8283;48.504;13.734;2023-05-01T01:02:25;3.72;;;2.33;;
16346;SDS011;8283;48.504;13.734;2023-05-01T01:05:09;2.58;;;2.38;;
16346;SDS011;8283;48.504;13.734;2023-05-01T01:07:58;3.15;;;2.63;;
16346;SDS011;8283;48.504;13.734;2023-05-01T01:14:35;2.95;;;2.53;;
16346;SDS011;8283;48.504;13.734;2023-05-01T01:17:41;2.40;;;2.17;;
16346;SDS011;8283;48.504;13.734;2023-05-01T01:27:12;2.88;;;2.28;;
16346;SDS011;8283;48.504;13.734;2023-05-01T01:30:25;3.03;;;2.60;;
16346;SDS011;8283;48.504;13.734;2023-05-01T01:40:10;3.70;;;2.63;;
16346;SDS011;8283;48.504;13.734;2023-05-01T01:43:01;3.10;;;2.80;;
16346;SDS011;8283;48.504;13.734;2023-05-01T01:45:52;3.42;;;3.10;;
16346;SDS011;8283;48.504;13.734;2023-05-01T01:48:42;3.17;;;2.30;;
16346;SDS011;8283;48.504;13.734;2023-05-01T01:51:31;3.80;;;3.03;;
16346;SDS011;8283;48.504;13.734;2023-05-01T01:54:22;2.72;;;2.30;;
16346;SDS011;8283;48.504;13.734;2023-05-01T01:57:15;2.70;;;2.42;;
16346;SDS011;8283;48.504;13.734;2023-05-01T02:00:01;4.28;;;2.60;;
16346;SDS011;8283;48.504;13.734;2023-05-01T02:02:46;3.70;;;2.70;;
16346;SDS011;8283;48.504;13.734;2023-05-01T02:05:32;2.85;;;2.55;;
16346;SDS011;8283;48.504;13.734;2023-05-01T02:08:17;2.95;;;2.55;;
16346;SDS011;8283;48.504;13.734;2023-05-01T02:11:04;2.60;;;2.40;;
16346;SDS011;8283;48.504;13.734;2023-05-01T02:13:49;3.42;;;2.67;;
16346;SDS011;8283;48.504;13.734;2023-05-01T02:16:35;3.50;;;2.30;;
16346;SDS011;8283;48.504;13.734;2023-05-01T02:19:20;2.78;;;2.55;;
16346;SDS011;8283;48.504;13.734;2023-05-01T02:22:06;4.65;;;3.30;;
16346;SDS011;8283;48.504;13.734;2023-05-01T02:24:52;4.40;;;3.15;;
16346;SDS011;8283;48.504;13.734;2023-05-01T02:30:55;3.30;;;3.00;;
16346;SDS011;8283;48.504;13.734;2023-05-01T02:33:40;4.65;;;2.85;;
16346;SDS011;8283;48.504;13.734;2023-05-01T02:36:25;5.43;;;3.17;;
16346;SDS011;8283;48.504;13.734;2023-05-01T02:39:10;3.97;;;3.53;;
16346;SDS011;8283;48.504;13.734;2023-05-01T02:41:55;4.10;;;3.03;;
16346;SDS011;8283;48.504;13.734;2023-05-01T02:44:46;3.00;;;2.70;;
16346;SDS011;8283;48.504;13.734;2023-05-01T02:47:38;4.55;;;2.60;;
16346;SDS011;8283;48.504;13.734;2023-05-01T02:50:27;4.43;;;2.80;;
16346;SDS011;8283;48.504;13.734;2023-05-01T02:53:12;2.95;;;2.47;;
16346;SDS011;8283;48.504;13.734;2023-05-01T02:56:07;3.03;;;2.65;;
16346;SDS011;8283;48.504;13.734;2023-05-01T02:58:52;4.82;;;2.63;;
16346;SDS011;8283;48.504;13.734;2023-05-01T03:01:36;2.65;;;2.45;;
16346;SDS011;8283;48.504;13.734;2023-05-01T03:04:21;3.83;;;2.80;;
16346;SDS011;8283;48.504;13.734;2023-05-01T03:07:06;3.78;;;2.65;;
16346;SDS011;8283;48.504;13.734;2023-05-01T03:09:51;3.67;;;2.80;;
16346;SDS011;8283;48.504;13.734;2023-05-01T03:12:35;3.15;;;2.35;;
16346;SDS011;8283;48.504;13.734;2023-05-01T03:15:19;2.65;;;2.13;;
16346;SDS011;8283;48.504;13.734;2023-05-01T03:18:04;4.82;;;2.40;;
16346;SDS011;8283;48.504;13.734;2023-05-01T03:20:52;3.63;;;2.25;;
16346;SDS011;8283;48.504;13.734;2023-05-01T03:23:38;2.63;;;2.42;;
16346;SDS011;8283;48.504;13.734;2023-05-01T03:26:22;2.72;;;2.30;;
16346;SDS011;8283;48.504;13.734;2023-05-01T03:29:07;4.78;;;3.05;;
16346;SDS011;8283;48.504;13.734;2023-05-01T03:31:52;3.80;;;1.88;;
16346;SDS011;8283;48.504;13.734;2023-05-01T03:34:37;2.00;;;1.80;;
16346;SDS011;8283;48.504;13.734;2023-05-01T03:37:22;3.65;;;2.22;;
16346;SDS011;8283;48.504;13.734;2023-05-01T03:40:07;3.15;;;2.22;;
16346;SDS011;8283;48.504;13.734;2023-05-01T03:43:11;4.75;;;2.50;;
16346;SDS011;8283;48.504;13.734;2023-05-01T03:45:55;2.75;;;2.25;;
16346;SDS011;8283;48.504;13.734;2023-05-01T03:48:40;4.82;;;2.00;;
16346;SDS011;8283;48.504;13.734;2023-05-01T03:51:24;3.50;;;2.30;;
16346;SDS011;8283;48.504;13.734;2023-05-01T03:54:11;3.30;;;1.85;;
16346;SDS011;8283;48.504;13.734;2023-05-01T03:57:11;1.70;;;1.60;;
16346;SDS011;8283;48.504;13.734;2023-05-01T03:59:56;2.85;;;1.92;;
16346;SDS011;8283;48.504;13.734;2023-05-01T04:02:40;5.93;;;2.35;;
16346;SDS011;8283;48.504;13.734;2023-05-01T04:05:27;3.38;;;2.00;;
16346;SDS011;8283;48.504;13.734;2023-05-01T04:08:17;3.75;;;2.22;;
16346;SDS011;8283;48.504;13.734;2023-05-01T04:11:02;3.65;;;2.25;;
16346;SDS011;8283;48.504;13.734;2023-05-01T04:13:47;2.33;;;2.13;;
16346;SDS011;8283;48.504;13.734;2023-05-01T04:16:32;2.90;;;2.00;;
16346;SDS011;8283;48.504;13.734;2023-05-01T04:19:17;2.85;;;2.60;;
16346;SDS011;8283;48.504;13.734;2023-05-01T04:22:03;2.53;;;2.15;;
16346;SDS011;8283;48.504;13.734;2023-05-01T04:24:50;4.05;;;2.17;;
16346;SDS011;8283;48.504;13.734;2023-05-01T04:27:35;3.95;;;2.13;;
16346;SDS011;8283;48.504;13.734;2023-05-01T04:30:20;2.03;;;1.63;;
16346;SDS011;8283;48.504;13.734;2023-05-01T04:33:05;2.58;;;1.85;;
16346;SDS011;8283;48.504;13.734;2023-05-01T04:35:54;2.17;;;1.98;;
16346;SDS011;8283;48.504;13.734;2023-05-01T04:38:39;2.10;;;1.80;;
16346;SDS011;8283;48.504;13.734;2023-05-01T04:41:23;2.38;;;2.00;;
16346;SDS011;8283;48.504;13.734;2023-05-01T04:44:08;1.90;;;1.70;;
16346;SDS011;8283;48.504;13.734;2023-05-01T04:46:52;2.60;;;1.70;;
16346;SDS011;8283;48.504;13.734;2023-05-01T04:49:37;2.88;;;2.35;;
16346;SDS011;8283;48.504;13.734;2023-05-01T04:52:22;1.98;;;1.65;;
16346;SDS011;8283;48.504;13.734;2023-05-01T04:55:10;2.72;;;1.80;;
16346;SDS011;8283;48.504;13.734;2023-05-01T04:58:03;1.73;;;1.60;;
16346;SDS011;8283;48.504;13.734;2023-05-01T05:00:48;2.65;;;2.08;;
16346;SDS011;8283;48.504;13.734;2023-05-01T05:03:37;3.33;;;1.70;;
16346;SDS011;8283;48.504;13.734;2023-05-01T05:06:21;2.33;;;1.42;;
16346;SDS011;8283;48.504;13.734;2023-05-01T05:09:05;3.20;;;1.27;;
16346;SDS011;8283;48.504;13.734;2023-05-01T05:11:50;2.28;;;1.88;;
16346;SDS011;8283;48.504;13.734;2023-05-01T05:14:38;2.38;;;1.90;;
16346;SDS011;8283;48.504;13.734;2023-05-01T05:17:22;3.28;;;1.50;;
16346;SDS011;8283;48.504;13.734;2023-05-01T05:20:07;1.65;;;1.40;;
16346;SDS011;8283;48.504;13.734;2023-05-01T05:22:52;2.05;;;1.63;;
16346;SDS011;8283;48.504;13.734;2023-05-01T05:25:41;2.97;;;1.88;;
16346;SDS011;8283;48.504;13.734;2023-05-01T05:28:26;2.70;;;1.90;;
16346;SDS011;8283;48.504;13.734;2023-05-01T05:31:11;2.35;;;1.70;;
16346;SDS011;8283;48.504;13.734;2023-05-01T05:33:56;3.28;;;1.55;;
16346;SDS011;8283;48.504;13.734;2023-05-01T05:36:40;3.75;;;1.80;;
16346;SDS011;8283;48.504;13.734;2023-05-01T05:39:25;2.08;;;1.60;;
16346;SDS011;8283;48.504;13.734;2023-05-01T05:42:09;1.90;;;1.50;;
16346;SDS011;8283;48.504;13.734;2023-05-01T05:44:53;2.58;;;1.65;;
16346;SDS011;8283;48.504;13.734;2023-05-01T05:47:38;2.47;;;1.30;;
16346;SDS011;8283;48.504;13.734;2023-05-01T05:50:23;2.83;;;1.63;;
16346;SDS011;8283;48.504;13.734;2023-05-01T05:53:08;3.83;;;1.42;;
16346;SDS011;8283;48.504;13.734;2023-05-01T05:55:53;2.05;;;1.23;;
16346;SDS011;8283;48.504;13.734;2023-05-01T05:58:38;2.67;;;1.77;;
16346;SDS011;8283;48.504;13.734;2023-05-01T06:01:23;2.00;;;1.55;;
16346;SDS011;8283;48.504;13.734;2023-05-01T06:04:08;2.08;;;1.60;;
16346;SDS011;8283;48.504;13.734;2023-05-01T06:06:56;1.90;;;1.52;;
16346;SDS011;8283;48.504;13.734;2023-05-01T06:09:41;3.00;;;1.75;;
16346;SDS011;8283;48.504;13.734;2023-05-01T06:12:26;2.42;;;1.60;;
16346;SDS011;8283;48.504;13.734;2023-05-01T06:15:11;1.75;;;1.25;;
16346;SDS011;8283;48.504;13.734;2023-05-01T06:18:02;3.10;;;1.60;;
16346;SDS011;8283;48.504;13.734;2023-05-01T06:20:46;2.85;;;1.60;;
16346;SDS011;8283;48.504;13.734;2023-05-01T06:23:31;5.00;;;1.77;;
16346;SDS011;8283;48.504;13.734;2023-05-01T06:26:42;2.35;;;1.60;;
16346;SDS011;8283;48.504;13.734;2023-05-01T06:29:26;1.38;;;1.27;;
16346;SDS011;8283;48.504;13.734;2023-05-01T06:32:11;2.97;;;1.27;;
16346;SDS011;8283;48.504;13.734;2023-05-01T06:34:56;1.83;;;1.35;;
16346;SDS011;8283;48.504;13.734;2023-05-01T06:37:41;4.45;;;1.50;;
16346;SDS011;8283;48.504;13.734;2023-05-01T06:40:26;2.50;;;1.23;;
16346;SDS011;8283;48.504;13.734;2023-05-01T06:43:12;3.10;;;1.40;;
16346;SDS011;8283;48.504;13.734;2023-05-01T06:45:56;2.20;;;1.20;;
16346;SDS011;8283;48.504;13.734;2023-05-01T06:48:41;2.20;;;1.38;;
16346;SDS011;8283;48.504;13.734;2023-05-01T06:51:25;2.60;;;1.27;;
16346;SDS011;8283;48.504;13.734;2023-05-01T06:54:10;2.47;;;1.30;;
16346;SDS011;8283;48.504;13.734;2023-05-01T06:56:54;1.65;;;1.23;;
16346;SDS011;8283;48.504;13.734;2023-05-01T06:59:39;3.55;;;1.60;;
16346;SDS011;8283;48.504;13.734;2023-05-01T07:02:23;1.70;;;1.27;;
16346;SDS011;8283;48.504;13.734;2023-05-01T07:05:08;1.30;;;1.20;;
16346;SDS011;8283;48.504;13.734;2023-05-01T07:07:53;3.40;;;1.48;;
16346;SDS011;8283;48.504;13.734;2023-05-01T07:10:37;2.42;;;1.50;;
16346;SDS011;8283;48.504;13.734;2023-05-01T07:13:21;2.25;;;1.60;;
16346;SDS011;8283;48.504;13.734;2023-05-01T07:16:06;1.13;;;1.00;;
16346;SDS011;8283;48.504;13.734;2023-05-01T07:18:52;2.97;;;1.50;;
16346;SDS011;8283;48.504;13.734;2023-05-01T07:21:36;2.75;;;1.23;;
16346;SDS011;8283;48.504;13.734;2023-05-01T07:24:20;1.85;;;1.35;;
16346;SDS011;8283;48.504;13.734;2023-05-01T07:27:04;2.33;;;1.33;;
16346;SDS011;8283;48.504;13.734;2023-05-01T07:29:49;3.40;;;1.30;;
16346;SDS011;8283;48.504;13.734;2023-05-01T07:32:33;8.82;;;7.95;;
16346;SDS011;8283;48.504;13.734;2023-05-01T07:35:17;2.63;;;1.83;;
16346;SDS011;8283;48.504;13.734;2023-05-01T07:38:02;1.50;;;1.40;;
16346;SDS011;8283;48.504;13.734;2023-05-01T07:40:47;2.17;;;1.50;;
16346;SDS011;8283;48.504;13.734;2023-05-01T07:43:35;1.83;;;1.30;;
16346;SDS011;8283;48.504;13.734;2023-05-01T07:46:20;1.63;;;1.17;;
16346;SDS011;8283;48.504;13.734;2023-05-01T07:49:04;3.40;;;1.27;;
16346;SDS011;8283;48.504;13.734;2023-05-01T07:51:49;1.95;;;1.20;;
16346;SDS011;8283;48.504;13.734;2023-05-01T07:54:33;1.38;;;1.25;;
16346;SDS011;8283;48.504;13.734;2023-05-01T07:57:18;2.47;;;1.20;;
16346;SDS011;8283;48.504;13.734;2023-05-01T08:00:03;1.25;;;1.05;;
16346;SDS011;8283;48.504;13.734;2023-05-01T08:02:57;4.55;;;1.10;;
16346;SDS011;8283;48.504;13.734;2023-05-01T08:05:41;1.75;;;1.10;;
16346;SDS011;8283;48.504;13.734;2023-05-01T08:08:26;1.10;;;0.98;;
16346;SDS011;8283;48.504;13.734;2023-05-01T08:11:10;2.47;;;1.25;;
16346;SDS011;8283;48.504;13.734;2023-05-01T08:13:54;1.17;;;0.90;;
16346;SDS011;8283;48.504;13.734;2023-05-01T08:16:38;2.53;;;1.20;;
16346;SDS011;8283;48.504;13.734;2023-05-01T08:19:23;3.50;;;1.23;;
16346;SDS011;8283;48.504;13.734;2023-05-01T08:22:08;1.98;;;1.15;;
16346;SDS011;8283;48.504;13.734;2023-05-01T08:24:53;2.67;;;1.27;;
16346;SDS011;8283;48.504;13.734;2023-05-01T08:27:40;1.85;;;1.15;;
16346;SDS011;8283;48.504;13.734;2023-05-01T08:30:25;1.50;;;0.98;;
16346;SDS011;8283;48.504;13.734;2023-05-01T08:33:14;1.58;;;1.10;;
16346;SDS011;8283;48.504;13.734;2023-05-01T08:35:58;1.65;;;1.55;;
16346;SDS011;8283;48.504;13.734;2023-05-01T08:38:43;1.05;;;0.95;;
16346;SDS011;8283;48.504;13.734;2023-05-01T08:41:27;1.50;;;1.00;;
16346;SDS011;8283;48.504;13.734;2023-05-01T08:44:15;1.45;;;1.13;;
16346;SDS011;8283;48.504;13.734;2023-05-01T08:49:55;1.15;;;0.90;;
16346;SDS011;8283;48.504;13.734;2023-05-01T08:52:42;1.63;;;1.00;;
16346;SDS011;8283;48.504;13.734;2023-05-01T08:55:27;1.90;;;1.17;;
16346;SDS011;8283;48.504;13.734;2023-05-01T08:58:14;1.42;;;0.93;;
16346;SDS011;8283;48.504;13.734;2023-05-01T09:01:01;1.10;;;1.00;;
16346;SDS011;8283;48.504;13.734;2023-05-01T09:03:45;2.42;;;1.20;;
16346;SDS011;8283;48.504;13.734;2023-05-01T09:06:32;1.45;;;1.05;;
16346;SDS011;8283;48.504;13.734;2023-05-01T09:09:17;1.95;;;1.10;;
16346;SDS011;8283;48.504;13.734;2023-05-01T09:15:04;1.70;;;0.90;;
16346;SDS011;8283;48.504;13.734;2023-05-01T09:17:50;1.38;;;0.88;;
16346;SDS011;8283;48.504;13.734;2023-05-01T09:20:35;1.10;;;0.80;;
16346;SDS011;8283;48.504;13.734;2023-05-01T09:23:20;1.20;;;1.10;;
16346;SDS011;8283;48.504;13.734;2023-05-01T09:26:06;1.38;;;1.00;;
16346;SDS011;8283;48.504;13.734;2023-05-01T09:28:51;1.20;;;0.90;;
16346;SDS011;8283;48.504;13.734;2023-05-01T09:31:40;0.85;;;0.75;;
16346;SDS011;8283;48.504;13.734;2023-05-01T09:34:24;1.20;;;0.98;;
16346;SDS011;8283;48.504;13.734;2023-05-01T09:37:10;1.52;;;1.00;;
16346;SDS011;8283;48.504;13.734;2023-05-01T09:40:09;1.02;;;0.90;;
16346;SDS011;8283;48.504;13.734;2023-05-01T09:42:57;1.30;;;1.02;;
16346;SDS011;8283;48.504;13.734;2023-05-01T09:45:42;1.35;;;1.00;;
16346;SDS011;8283;48.504;13.734;2023-05-01T09:49:00;1.30;;;1.10;;
16346;SDS011;8283;48.504;13.734;2023-05-01T09:51:45;1.05;;;0.95;;
16346;SDS011;8283;48.504;13.734;2023-05-01T09:54:31;1.65;;;1.20;;
16346;SDS011;8283;48.504;13.734;2023-05-01T09:57:15;0.75;;;0.70;;
16346;SDS011;8283;48.504;13.734;2023-05-01T10:00:00;1.10;;;1.00;;
16346;SDS011;8283;48.504;13.734;2023-05-01T10:02:50;1.00;;;0.88;;
16346;SDS011;8283;48.504;13.734;2023-05-01T10:05:41;2.15;;;1.00;;
16346;SDS011;8283;48.504;13.734;2023-05-01T10:08:43;2.00;;;1.40;;
16346;SDS011;8283;48.504;13.734;2023-05-01T10:11:45;1.88;;;1.13;;
16346;SDS011;8283;48.504;13.734;2023-05-01T10:14:48;3.00;;;0.90;;
16346;SDS011;8283;48.504;13.734;2023-05-01T10:17:40;1.02;;;0.88;;
16346;SDS011;8283;48.504;13.734;2023-05-01T10:20:25;1.90;;;0.93;;
16346;SDS011;8283;48.504;13.734;2023-05-01T10:23:09;1.20;;;1.00;;
16346;SDS011;8283;48.504;13.734;2023-05-01T10:25:55;1.10;;;0.85;;
16346;SDS011;8283;48.504;13.734;2023-05-01T10:28:41;1.70;;;0.90;;
16346;SDS011;8283;48.504;13.734;2023-05-01T10:31:27;1.27;;;0.80;;
16346;SDS011;8283;48.504;13.734;2023-05-01T10:34:14;1.60;;;0.88;;
16346;SDS011;8283;48.504;13.734;2023-05-01T10:37:01;1.98;;;1.50;;
16346;SDS011;8283;48.504;13.734;2023-05-01T10:39:50;1.75;;;1.10;;
16346;SDS011;8283;48.504;13.734;2023-05-01T10:42:40;1.02;;;0.90;;
16346;SDS011;8283;48.504;13.734;2023-05-01T10:51:34;1.42;;;1.20;;
16346;SDS011;8283;48.504;13.734;2023-05-01T10:54:43;0.80;;;0.70;;
16346;SDS011;8283;48.504;13.734;2023-05-01T10:57:40;1.25;;;0.93;;
16346;SDS011;8283;48.504;13.734;2023-05-01T11:00:26;1.52;;;1.30;;
16346;SDS011;8283;48.504;13.734;2023-05-01T11:06:04;1.00;;;0.90;;
16346;SDS011;8283;48.504;13.734;2023-05-01T11:08:49;3.35;;;1.00;;
16346;SDS011;8283;48.504;13.734;2023-05-01T11:14:19;1.00;;;0.90;;
16346;SDS011;8283;48.504;13.734;2023-05-01T11:17:03;5.18;;;1.35;;
16346;SDS011;8283;48.504;13.734;2023-05-01T11:19:47;0.80;;;0.80;;
16346;SDS011;8283;48.504;13.734;2023-05-01T11:22:32;1.65;;;1.00;;
16346;SDS011;8283;48.504;13.734;2023-05-01T11:25:21;1.52;;;1.10;;
16346;SDS011;8283;48.504;13.734;2023-05-01T11:28:06;1.20;;;1.10;;
16346;SDS011;8283;48.504;13.734;2023-05-01T11:30:52;1.27;;;0.93;;
16346;SDS011;8283;48.504;13.734;2023-05-01T11:33:37;1.05;;;0.90;;
16346;SDS011;8283;48.504;13.734;2023-05-01T11:36:21;0.98;;;0.80;;
16346;SDS011;8283;48.504;13.734;2023-05-01T11:39:06;1.08;;;0.98;;
16346;SDS011;8283;48.504;13.734;2023-05-01T11:42:07;1.67;;;1.00;;
16346;SDS011;8283;48.504;13.734;2023-05-01T11:45:08;1.27;;;0.98;;
16346;SDS011;8283;48.504;13.734;2023-05-01T11:47:56;0.82;;;0.80;;
16346;SDS011;8283;48.504;13.734;2023-05-01T11:50:40;1.13;;;0.80;;
16346;SDS011;8283;48.504;13.734;2023-05-01T11:53:25;1.35;;;0.90;;
16346;SDS011;8283;48.504;13.734;2023-05-01T11:56:19;0.77;;;0.77;;
16346;SDS011;8283;48.504;13.734;2023-05-01T11:59:09;1.20;;;0.88;;
16346;SDS011;8283;48.504;13.734;2023-05-01T12:01:54;1.05;;;0.70;;
16346;SDS011;8283;48.504;13.734;2023-05-01T12:04:39;2.03;;;1.23;;
16346;SDS011;8283;48.504;13.734;2023-05-01T12:07:23;1.85;;;0.95;;
16346;SDS011;8283;48.504;13.734;2023-05-01T12:10:08;1.73;;;0.80;;
16346;SDS011;8283;48.504;13.734;2023-05-01T12:12:53;1.27;;;0.80;;
16346;SDS011;8283;48.504;13.734;2023-05-01T12:15:38;1.15;;;0.77;;
16346;SDS011;8283;48.504;13.734;2023-05-01T12:18:25;1.38;;;0.90;;
16346;SDS011;8283;48.504;13.734;2023-05-01T12:21:16;0.82;;;0.80;;
16346;SDS011;8283;48.504;13.734;2023-05-01T12:24:13;1.27;;;0.70;;
16346;SDS011;8283;48.504;13.734;2023-05-01T12:27:01;0.80;;;0.70;;
16346;SDS011;8283;48.504;13.734;2023-05-01T12:29:46;0.82;;;0.70;;
16346;SDS011;8283;48.504;13.734;2023-05-01T12:32:31;0.70;;;0.70;;
16346;SDS011;8283;48.504;13.734;2023-05-01T12:35:16;1.10;;;0.77;;
16346;SDS011;8283;48.504;13.734;2023-05-01T12:38:08;1.70;;;1.20;;
16346;SDS011;8283;48.504;13.734;2023-05-01T12:40:57;1.27;;;1.00;;
16346;SDS011;8283;48.504;13.734;2023-05-01T12:43:43;1.30;;;0.70;;
16346;SDS011;8283;48.504;13.734;2023-05-01T12:46:27;1.08;;;0.98;;
16346;SDS011;8283;48.504;13.734;2023-05-01T12:49:16;1.15;;;0.90;;
16346;SDS011;8283;48.504;13.734;2023-05-01T12:52:02;0.63;;;0.63;;
16346;SDS011;8283;48.504;13.734;2023-05-01T12:54:49;1.08;;;0.88;;
16346;SDS011;8283;48.504;13.734;2023-05-01T12:57:34;1.00;;;0.70;;
16346;SDS011;8283;48.504;13.734;2023-05-01T13:00:19;1.02;;;0.80;;
16346;SDS011;8283;48.504;13.734;2023-05-01T13:03:04;1.08;;;0.73;;
16346;SDS011;8283;48.504;13.734;2023-05-01T13:05:49;1.05;;;0.95;;
16346;SDS011;8283;48.504;13.734;2023-05-01T13:08:38;1.35;;;0.98;;
16346;SDS011;8283;48.504;13.734;2023-05-01T13:11:23;1.35;;;0.80;;
16346;SDS011;8283;48.504;13.734;2023-05-01T13:14:08;0.75;;;0.75;;
16346;SDS011;8283;48.504;13.734;2023-05-01T13:16:53;1.42;;;0.90;;
16346;SDS011;8283;48.504;13.734;2023-05-01T13:19:38;0.90;;;0.80;;
16346;SDS011;8283;48.504;13.734;2023-05-01T13:25:22;2.33;;;1.00;;
16346;SDS011;8283;48.504;13.734;2023-05-01T13:28:07;0.88;;;0.88;;
16346;SDS011;8283;48.504;13.734;2023-05-01T13:30:52;1.25;;;1.00;;
16346;SDS011;8283;48.504;13.734;2023-05-01T13:33:36;0.88;;;0.88;;
16346;SDS011;8283;48.504;13.734;2023-05-01T13:36:22;1.08;;;0.98;;
16346;SDS011;8283;48.504;13.734;2023-05-01T13:39:07;0.93;;;0.90;;
16346;SDS011;8283;48.504;13.734;2023-05-01T13:41:51;1.80;;;1.10;;
16346;SDS011;8283;48.504;13.734;2023-05-01T13:44:41;3.05;;;1.20;;
16346;SDS011;8283;48.504;13.734;2023-05-01T13:47:26;1.45;;;0.98;;
16346;SDS011;8283;48.504;13.734;2023-05-01T13:50:14;1.25;;;1.00;;
16346;SDS011;8283;48.504;13.734;2023-05-01T13:53:00;1.05;;;0.82;;
16346;SDS011;8283;48.504;13.734;2023-05-01T13:55:44;1.75;;;0.90;;
16346;SDS011;8283;48.504;13.734;2023-05-01T13:58:28;1.40;;;0.90;;
16346;SDS011;8283;48.504;13.734;2023-05-01T14:01:14;1.70;;;1.17;;
16346;SDS011;8283;48.504;13.734;2023-05-01T14:04:05;1.63;;;1.20;;
16346;SDS011;8283;48.504;13.734;2023-05-01T14:06:52;1.40;;;1.08;;
16346;SDS011;8283;48.504;13.734;2023-05-01T14:09:37;1.85;;;1.10;;
16346;SDS011;8283;48.504;13.734;2023-05-01T14:12:28;1.67;;;1.00;;
16346;SDS011;8283;48.504;13.734;2023-05-01T14:15:14;1.25;;;0.98;;
16346;SDS011;8283;48.504;13.734;2023-05-01T14:18:04;1.98;;;1.23;;
16346;SDS011;8283;48.504;13.734;2023-05-01T14:20:50;1.98;;;1.10;;
16346;SDS011;8283;48.504;13.734;2023-05-01T14:23:34;2.92;;;1.42;;
16346;SDS011;8283;48.504;13.734;2023-05-01T14:26:19;0.98;;;0.75;;
16346;SDS011;8283;48.504;13.734;2023-05-01T14:29:04;1.23;;;1.10;;
16346;SDS011;8283;48.504;13.734;2023-05-01T14:31:50;1.20;;;1.05;;
16346;SDS011;8283;48.504;13.734;2023-05-01T14:34:35;1.55;;;1.45;;
16346;SDS011;8283;48.504;13.734;2023-05-01T14:37:24;1.20;;;1.05;;
16346;SDS011;8283;48.504;13.734;2023-05-01T14:40:11;1.33;;;1.23;;
16346;SDS011;8283;48.504;13.734;2023-05-01T14:42:57;1.30;;;1.17;;
16346;SDS011;8283;48.504;13.734;2023-05-01T14:45:41;2.10;;;1.25;;
16346;SDS011;8283;48.504;13.734;2023-05-01T14:48:32;4.07;;;1.42;;
16346;SDS011;8283;48.504;13.734;2023-05-01T14:51:19;1.35;;;1.13;;
16346;SDS011;8283;48.504;13.734;2023-05-01T14:54:03;2.08;;;1.40;;
16346;SDS011;8283;48.504;13.734;2023-05-01T14:56:47;1.60;;;1.30;;
16346;SDS011;8283;48.504;13.734;2023-05-01T14:59:32;2.05;;;1.70;;
16346;SDS011;8283;48.504;13.734;2023-05-01T15:02:16;2.08;;;1.40;;
16346;SDS011;8283;48.504;13.734;2023-05-01T15:05:00;1.40;;;1.30;;
16346;SDS011;8283;48.504;13.734;2023-05-01T15:07:44;1.20;;;1.00;;
16346;SDS011;8283;48.504;13.734;2023-05-01T15:10:29;1.73;;;1.20;;
16346;SDS011;8283;48.504;13.734;2023-05-01T15:13:15;1.70;;;1.20;;
16346;SDS011;8283;48.504;13.734;2023-05-01T15:16:00;1.40;;;1.30;;
16346;SDS011;8283;48.504;13.734;2023-05-01T15:18:44;1.35;;;1.20;;
16346;SDS011;8283;48.504;13.734;2023-05-01T15:21:29;2.95;;;1.30;;
16346;SDS011;8283;48.504;13.734;2023-05-01T15:24:15;1.42;;;1.17;;
16346;SDS011;8283;48.504;13.734;2023-05-01T15:26:59;1.67;;;1.30;;
16346;SDS011;8283;48.504;13.734;2023-05-01T15:29:44;1.38;;;1.27;;
16346;SDS011;8283;48.504;13.734;2023-05-01T15:32:28;2.65;;;1.52;;
16346;SDS011;8283;48.504;13.734;2023-05-01T15:35:13;1.45;;;1.23;;
16346;SDS011;8283;48.504;13.734;2023-05-01T15:37:57;3.15;;;1.90;;
16346;SDS011;8283;48.504;13.734;2023-05-01T15:40:42;1.60;;;1.50;;
16346;SDS011;8283;48.504;13.734;2023-05-01T15:43:26;1.65;;;1.55;;
16346;SDS011;8283;48.504;13.734;2023-05-01T15:46:11;2.15;;;1.95;;
16346;SDS011;8283;48.504;13.734;2023-05-01T15:48:55;1.70;;;1.52;;
16346;SDS011;8283;48.504;13.734;2023-05-01T15:51:39;4.20;;;2.03;;
16346;SDS011;8283;48.504;13.734;2023-05-01T15:54:24;2.13;;;1.65;;
16346;SDS011;8283;48.504;13.734;2023-05-01T15:57:10;2.97;;;2.20;;
16346;SDS011;8283;48.504;13.734;2023-05-01T15:59:55;2.40;;;1.90;;
16346;SDS011;8283;48.504;13.734;2023-05-01T16:02:39;4.32;;;2.15;;
16346;SDS011;8283;48.504;13.734;2023-05-01T16:05:24;4.30;;;1.80;;
16346;SDS011;8283;48.504;13.734;2023-05-01T16:08:09;2.22;;;2.03;;
16346;SDS011;8283;48.504;13.734;2023-05-01T16:10:54;1.70;;;1.60;;
16346;SDS011;8283;48.504;13.734;2023-05-01T16:13:40;2.70;;;2.15;;
16346;SDS011;8283;48.504;13.734;2023-05-01T16:16:25;2.22;;;2.03;;
16346;SDS011;8283;48.504;13.734;2023-05-01T16:19:11;1.60;;;1.50;;
16346;SDS011;8283;48.504;13.734;2023-05-01T16:22:01;2.00;;;1.77;;
16346;SDS011;8283;48.504;13.734;2023-05-01T16:24:46;2.10;;;1.60;;
16346;SDS011;8283;48.504;13.734;2023-05-01T16:27:31;2.08;;;1.88;;
16346;SDS011;8283;48.504;13.734;2023-05-01T16:30:15;2.65;;;1.92;;
16346;SDS011;8283;48.504;13.734;2023-05-01T16:33:00;2.13;;;1.63;;
16346;SDS011;8283;48.504;13.734;2023-05-01T16:35:46;2.40;;;2.20;;
16346;SDS011;8283;48.504;13.734;2023-05-01T16:38:34;2.20;;;2.00;;
16346;SDS011;8283;48.504;13.734;2023-05-01T16:41:19;1.80;;;1.58;;
16346;SDS011;8283;48.504;13.734;2023-05-01T16:44:03;2.10;;;1.90;;
16346;SDS011;8283;48.504;13.734;2023-05-01T16:46:50;2.10;;;1.90;;
16346;SDS011;8283;48.504;13.734;2023-05-01T16:49:39;2.65;;;1.70;;
16346;SDS011;8283;48.504;13.734;2023-05-01T16:52:29;3.17;;;1.75;;
16346;SDS011;8283;48.504;13.734;2023-05-01T16:55:13;2.30;;;2.10;;
16346;SDS011;8283;48.504;13.734;2023-05-01T16:57:58;2.05;;;1.85;;
16346;SDS011;8283;48.504;13.734;2023-05-01T17:00:42;2.20;;;2.00;;
16346;SDS011;8283;48.504;13.734;2023-05-01T17:03:27;2.10;;;1.90;;
16346;SDS011;8283;48.504;13.734;2023-05-01T17:06:12;3.10;;;2.22;;
16346;SDS011;8283;48.504;13.734;2023-05-01T17:08:56;2.33;;;1.90;;
16346;SDS011;8283;48.504;13.734;2023-05-01T17:11:41;3.22;;;2.03;;
16346;SDS011;8283;48.504;13.734;2023-05-01T17:14:28;2.17;;;1.98;;
16346;SDS011;8283;48.504;13.734;2023-05-01T17:17:13;2.40;;;1.95;;
16346;SDS011;8283;48.504;13.734;2023-05-01T17:20:00;3.00;;;2.08;;
16346;SDS011;8283;48.504;13.734;2023-05-01T17:22:49;2.80;;;2.03;;
16346;SDS011;8283;48.504;13.734;2023-05-01T17:25:34;3.05;;;2.50;;